Time;durP1;ratioP1;P1;durP2;ratioP2;P2;SDS_P1;SDS_P2;PMS_P1;PMS_P2;Temp;Humidity;BMP_temperature;BMP_pressure;BME280_temperature;BME280_humidity;BME280_pressure;Samples;Min_cycle;Max_cycle;Signal;HPM_P1;HPM_P2
2021/01/05 00:01:40;;;;;;;4.90;3.97;;;7.50;99.90;;;;;;5037124;28;20036;-74
2021/01/05 00:04:06;;;;;;;4.80;3.70;;;7.40;99.90;;;;;;5031570;28;20108;-74
2021/01/05 00:06:32;;;;;;;3.78;2.58;;;7.30;99.90;;;;;;5027873;28;20044;-74
2021/01/05 00:08:58;;;;;;;6.25;3.42;;;7.40;99.90;;;;;;5032679;28;20120;-74
2021/01/05 00:11:24;;;;;;;4.45;3.75;;;7.30;99.90;;;;;;5029966;28;20104;-74
2021/01/05 00:13:50;;;;;;;4.55;3.20;;;7.30;99.90;;;;;;5036680;28;20021;-74
2021/01/05 00:16:16;;;;;;;3.10;2.80;;;7.30;99.90;;;;;;5036046;28;20438;-74
2021/01/05 00:18:42;;;;;;;3.90;3.50;;;7.30;99.90;;;;;;5034901;28;20048;-74
2021/01/05 00:21:08;;;;;;;3.45;2.90;;;7.40;99.90;;;;;;5028959;28;20074;-73
2021/01/05 00:23:34;;;;;;;3.58;3.20;;;7.40;99.90;;;;;;5034320;28;20071;-74
2021/01/05 00:26:00;;;;;;;3.63;3.03;;;7.40;99.90;;;;;;5033646;28;20029;-74
2021/01/05 00:28:26;;;;;;;5.55;3.35;;;7.40;99.90;;;;;;5031995;28;20097;-73
2021/01/05 00:30:51;;;;;;;3.78;3.40;;;7.50;99.90;;;;;;5033134;28;20116;-74
2021/01/05 00:33:17;;;;;;;5.50;3.35;;;7.50;99.90;;;;;;5028345;28;20034;-73
2021/01/05 00:35:43;;;;;;;6.53;3.60;;;7.40;99.90;;;;;;5027572;28;20021;-73
2021/01/05 00:38:11;;;;;;;4.22;3.83;;;7.40;99.90;;;;;;5033599;28;20024;-73
2021/01/05 00:40:38;;;;;;;5.63;3.90;;;7.50;99.90;;;;;;5034596;28;20013;-74
2021/01/05 00:43:04;;;;;;;4.07;3.45;;;7.50;99.90;;;;;;5033979;28;20032;-73
2021/01/05 00:45:38;;;;;;;5.75;3.97;;;7.40;99.90;;;;;;5034349;28;20013;-73
2021/01/05 00:48:06;;;;;;;3.90;3.22;;;7.50;99.90;;;;;;5027469;28;20048;-73
2021/01/05 00:50:32;;;;;;;4.07;3.67;;;7.50;99.90;;;;;;5034471;28;20448;-73
2021/01/05 00:52:58;;;;;;;5.63;3.63;;;7.50;99.90;;;;;;5033112;28;20030;-73
2021/01/05 00:55:24;;;;;;;2.60;2.40;;;7.50;99.90;;;;;;5033250;28;20547;-73
2021/01/05 00:57:50;;;;;;;4.03;3.45;;;7.60;99.90;;;;;;5032841;28;20025;-73
2021/01/05 01:00:21;;;;;;;3.42;2.83;;;7.50;99.90;;;;;;5032928;28;20045;-73
2021/01/05 01:02:49;;;;;;;3.35;3.05;;;7.60;99.90;;;;;;5032989;28;20551;-74
2021/01/05 01:05:15;;;;;;;5.15;3.22;;;7.60;99.90;;;;;;5035471;28;20029;-74
2021/01/05 01:07:41;;;;;;;3.75;3.38;;;7.70;99.90;;;;;;5034680;28;20041;-74
2021/01/05 01:10:08;;;;;;;4.45;3.33;;;7.70;99.90;;;;;;5036812;28;20469;-74
2021/01/05 01:12:33;;;;;;;4.00;2.65;;;7.80;99.90;;;;;;5035884;28;20040;-74
2021/01/05 01:14:59;;;;;;;4.20;3.58;;;7.80;99.90;;;;;;5034867;28;20021;-74
2021/01/05 01:17:26;;;;;;;5.85;3.35;;;7.90;99.90;;;;;;5036266;28;20097;-74
2021/01/05 01:19:52;;;;;;;7.00;3.65;;;7.80;99.90;;;;;;5030909;28;20037;-74
2021/01/05 01:22:21;;;;;;;4.32;3.80;;;7.90;99.90;;;;;;5035077;28;20025;-74
2021/01/05 01:24:47;;;;;;;4.90;4.25;;;7.90;99.90;;;;;;5027113;28;20034;-74
2021/01/05 01:27:13;;;;;;;4.70;4.05;;;7.90;99.90;;;;;;5034068;28;20041;-74
2021/01/05 01:29:39;;;;;;;3.58;3.28;;;7.90;99.90;;;;;;5028589;28;20062;-73
2021/01/05 01:32:08;;;;;;;4.05;3.65;;;7.80;99.90;;;;;;5034631;28;20025;-74
2021/01/05 01:34:34;;;;;;;4.05;3.65;;;7.80;99.90;;;;;;5034576;28;20033;-74
2021/01/05 01:37:09;;;;;;;4.47;3.58;;;7.90;99.90;;;;;;5035362;28;20393;-74
2021/01/05 01:39:41;;;;;;;4.45;3.63;;;7.80;99.90;;;;;;5033733;28;20093;-74
2021/01/05 01:42:07;;;;;;;;;;;7.80;99.90;;;;;;5032178;28;20036;-74
2021/01/05 01:44:38;;;;;;;6.18;4.13;;;7.80;99.90;;;;;;5037400;28;19944;-73
2021/01/05 01:47:18;;;;;;;4.40;4.00;;;7.80;99.90;;;;;;5035202;28;20025;-74
2021/01/05 01:49:47;;;;;;;6.30;4.35;;;7.90;99.90;;;;;;5033736;28;20068;-74
2021/01/05 01:52:16;;;;;;;4.57;3.80;;;7.90;99.90;;;;;;5034714;28;20193;-73
2021/01/05 01:55:08;;;;;;;5.13;4.18;;;7.80;99.90;;;;;;5033693;28;20045;-74
2021/01/05 01:57:46;;;;;;;5.68;5.07;;;7.80;99.90;;;;;;5033457;28;20025;-74
2021/01/05 02:00:20;;;;;;;6.43;3.92;;;7.70;99.90;;;;;;5030788;28;20026;-74
2021/01/05 02:03:05;;;;;;;5.05;4.25;;;7.70;99.90;;;;;;5031236;28;20025;-73
2021/01/05 02:05:44;;;;;;;5.47;4.28;;;7.70;99.90;;;;;;5029058;28;20122;-73
2021/01/05 02:08:12;;;;;;;5.30;4.32;;;7.60;99.90;;;;;;5023391;28;20111;-73
2021/01/05 02:10:53;;;;;;;5.40;4.88;;;7.60;99.90;;;;;;5032457;28;20060;-74
2021/01/05 02:13:33;;;;;;;7.03;4.80;;;7.60;99.90;;;;;;5014705;28;20053;-74
2021/01/05 02:16:19;;;;;;;10.98;4.63;;;7.60;99.90;;;;;;5031131;28;20022;-74
2021/01/05 02:19:09;;;;;;;4.97;4.07;;;7.50;99.90;;;;;;5030432;28;20026;-74
2021/01/05 02:21:57;;;;;;;5.55;4.63;;;7.40;99.90;;;;;;5031214;28;20045;-74
2021/01/05 02:24:38;;;;;;;10.35;5.63;;;7.50;99.90;;;;;;5028432;28;20555;-74
2021/01/05 02:27:10;;;;;;;14.18;6.82;;;7.40;99.90;;;;;;5033250;28;20024;-74
2021/01/05 02:29:45;;;;;;;4.93;4.32;;;7.40;99.90;;;;;;5032904;28;20021;-74
2021/01/05 02:32:48;;;;;;;5.18;4.05;;;7.40;99.90;;;;;;5025645;28;20057;-73
2021/01/05 02:35:35;;;;;;;6.50;5.22;;;7.40;99.90;;;;;;5029867;28;20021;-74
2021/01/05 02:38:15;;;;;;;4.80;4.05;;;7.30;99.90;;;;;;5033021;28;20029;-73
2021/01/05 02:41:12;;;;;;;7.68;3.90;;;7.30;99.90;;;;;;5034873;28;20018;-73
2021/01/05 02:44:21;;;;;;;6.72;5.07;;;7.30;99.90;;;;;;5032958;28;20033;-74
2021/01/05 02:46:53;;;;;;;5.18;4.35;;;7.20;99.90;;;;;;5031110;28;20026;-74
2021/01/05 02:49:34;;;;;;;5.90;4.70;;;7.20;99.90;;;;;;5027320;28;20041;-73
2021/01/05 02:52:32;;;;;;;6.28;4.50;;;7.00;99.90;;;;;;5033980;28;20036;-73
2021/01/05 02:55:26;;;;;;;4.25;3.85;;;6.90;99.90;;;;;;5034547;28;20071;-74
2021/01/05 02:57:54;;;;;;;5.00;3.90;;;6.90;99.90;;;;;;5034404;28;20030;-73
2021/01/05 03:00:42;;;;;;;5.38;4.70;;;6.90;99.90;;;;;;5034573;28;20478;-74
2021/01/05 03:03:43;;;;;;;4.93;4.18;;;6.90;99.90;;;;;;5023847;28;20045;-74
2021/01/05 03:06:32;;;;;;;4.35;3.92;;;6.90;99.90;;;;;;5025825;28;20033;-73
2021/01/05 03:09:17;;;;;;;5.38;4.88;;;6.90;99.90;;;;;;5034376;28;20021;-73
2021/01/05 03:12:00;;;;;;;5.65;4.25;;;6.90;99.90;;;;;;5034201;28;20044;-74
2021/01/05 03:15:05;;;;;;;4.63;4.22;;;6.80;99.90;;;;;;5030427;28;20037;-74
2021/01/05 03:17:36;;;;;;;14.18;5.18;;;6.80;99.90;;;;;;5033701;28;20049;-73
2021/01/05 03:20:16;;;;;;;5.55;5.00;;;6.80;99.90;;;;;;5034429;28;20033;-73
2021/01/05 03:22:58;;;;;;;4.93;4.53;;;6.70;99.90;;;;;;5035171;28;20033;-73
2021/01/05 03:25:28;;;;;;;6.93;5.13;;;6.60;99.90;;;;;;5031806;28;20025;-73
2021/01/05 03:27:56;;;;;;;5.55;4.32;;;6.60;99.90;;;;;;5034486;28;20049;-75
2021/01/05 03:30:39;;;;;;;6.80;4.20;;;6.60;99.90;;;;;;5036315;28;20516;-73
2021/01/05 03:33:06;;;;;;;4.95;4.20;;;6.60;99.90;;;;;;5032725;28;20124;-73
2021/01/05 03:35:32;;;;;;;5.78;4.20;;;6.50;99.90;;;;;;5034033;28;20064;-73
2021/01/05 03:37:58;;;;;;;4.93;4.32;;;6.50;99.90;;;;;;5034250;28;20037;-73
2021/01/05 03:40:25;;;;;;;5.13;4.18;;;6.40;99.90;;;;;;5035778;28;20025;-73
2021/01/05 03:42:51;;;;;;;4.68;4.10;;;6.40;99.90;;;;;;5033521;28;20492;-73
2021/01/05 03:45:25;;;;;;;7.22;5.68;;;6.50;99.90;;;;;;5035034;28;20025;-73
2021/01/05 03:47:51;;;;;;;5.95;4.10;;;6.50;99.90;;;;;;5039301;28;20053;-74
2021/01/05 03:50:18;;;;;;;5.10;3.88;;;6.50;99.90;;;;;;5038695;28;20033;-73
2021/01/05 03:52:44;;;;;;;4.70;4.00;;;6.40;99.90;;;;;;5037764;28;20033;-73
2021/01/05 03:55:12;;;;;;;8.55;5.13;;;6.40;99.90;;;;;;5034457;28;20022;-73
2021/01/05 03:57:38;;;;;;;4.57;4.13;;;6.30;99.90;;;;;;5038008;28;20033;-75
2021/01/05 04:00:06;;;;;;;8.35;4.93;;;6.40;99.90;;;;;;5038451;28;20021;-74
2021/01/05 04:02:32;;;;;;;4.40;4.00;;;6.40;99.90;;;;;;5037828;28;20025;-73
2021/01/05 04:04:58;;;;;;;4.97;4.32;;;6.30;99.90;;;;;;5028032;28;20025;-74
2021/01/05 04:07:24;;;;;;;6.55;5.47;;;6.30;99.90;;;;;;5038383;28;20122;-73
2021/01/05 04:09:50;;;;;;;5.50;4.10;;;6.30;99.90;;;;;;5030464;28;20029;-73
2021/01/05 04:12:16;;;;;;;5.63;4.32;;;6.30;99.90;;;;;;5038445;28;20029;-73
2021/01/05 04:14:42;;;;;;;4.70;3.67;;;6.20;99.90;;;;;;5036645;28;20053;-73
2021/01/05 04:17:08;;;;;;;3.83;3.53;;;6.20;99.90;;;;;;5038280;28;20025;-73
2021/01/05 04:19:34;;;;;;;7.93;3.33;;;6.20;99.90;;;;;;5029768;28;20025;-73
2021/01/05 04:22:00;;;;;;;5.10;4.65;;;6.30;99.90;;;;;;5037320;28;20024;-74
2021/01/05 04:24:26;;;;;;;4.93;4.25;;;6.30;99.90;;;;;;5037236;28;20033;-73
2021/01/05 04:26:52;;;;;;;8.98;4.35;;;6.40;99.90;;;;;;5037120;28;20116;-74
2021/01/05 04:29:18;;;;;;;4.45;3.78;;;6.30;99.90;;;;;;5033861;28;20112;-73
2021/01/05 04:31:45;;;;;;;4.20;3.55;;;6.20;99.90;;;;;;5035880;28;20029;-74
2021/01/05 04:34:12;;;;;;;5.22;4.47;;;6.30;99.90;;;;;;5034998;28;20033;-74
2021/01/05 04:36:39;;;;;;;4.00;3.33;;;6.30;99.90;;;;;;5039305;28;20032;-73
2021/01/05 04:39:07;;;;;;;4.65;4.03;;;6.40;99.90;;;;;;5034587;28;20428;-74
2021/01/05 04:42:00;;;;;;;4.40;3.25;;;6.40;99.90;;;;;;5035193;28;20018;-73
2021/01/05 04:44:30;;;;;;;4.53;3.67;;;6.40;99.90;;;;;;5033117;28;20026;-73
2021/01/05 04:47:10;;;;;;;3.63;3.22;;;6.40;99.90;;;;;;5033959;28;20053;-73
2021/01/05 04:50:05;;;;;;;5.93;4.10;;;6.40;99.90;;;;;;5034654;28;20388;-73
2021/01/05 04:52:59;;;;;;;7.18;3.63;;;6.60;99.90;;;;;;5034278;28;20037;-74
2021/01/05 04:55:44;;;;;;;3.10;2.75;;;6.50;99.90;;;;;;5033382;28;20021;-73
2021/01/05 04:58:19;;;;;;;7.55;3.78;;;6.60;99.90;;;;;;5019360;28;20036;-74
2021/01/05 05:00:46;;;;;;;3.90;3.05;;;6.70;99.90;;;;;;5033199;28;20021;-74
2021/01/05 05:03:16;;;;;;;5.57;2.45;;;6.50;99.90;;;;;;5033162;28;20022;-73
2021/01/05 05:05:57;;;;;;;3.08;2.58;;;6.50;99.90;;;;;;5032937;28;20032;-73
2021/01/05 05:08:37;;;;;;;2.28;2.08;;;6.60;99.90;;;;;;5034008;28;20023;-74
2021/01/05 05:11:14;;;;;;;4.18;3.55;;;6.70;99.90;;;;;;5027057;28;20036;-74
2021/01/05 05:14:17;;;;;;;2.60;2.22;;;6.70;99.90;;;;;;5032141;28;20032;-74
2021/01/05 05:17:24;;;;;;;2.28;2.00;;;6.70;99.90;;;;;;5026211;28;20112;-73
2021/01/05 05:20:26;;;;;;;5.75;2.45;;;6.70;99.90;;;;;;5027666;28;20037;-73
2021/01/05 05:23:13;;;;;;;4.57;2.53;;;6.70;99.90;;;;;;5032180;28;20049;-74
2021/01/05 05:25:50;;;;;;;2.88;2.65;;;6.70;99.90;;;;;;5031483;28;20052;-74
2021/01/05 05:28:22;;;;;;;3.55;2.85;;;6.60;99.90;;;;;;5033423;28;20029;-73
2021/01/05 05:30:48;;;;;;;2.17;1.73;;;6.60;99.90;;;;;;5026457;28;20116;-73
2021/01/05 05:33:23;;;;;;;3.08;2.17;;;6.70;99.90;;;;;;5032824;28;20080;-73
2021/01/05 05:36:13;;;;;;;3.85;2.53;;;6.70;99.90;;;;;;5036336;28;20124;-74
2021/01/05 05:39:03;;;;;;;3.33;2.15;;;6.80;99.90;;;;;;5035264;28;20025;-74
2021/01/05 05:41:43;;;;;;;4.00;1.77;;;6.70;99.90;;;;;;5030552;28;20079;-74
2021/01/05 05:44:12;;;;;;;3.42;2.28;;;6.70;99.90;;;;;;5033374;28;20032;-74
2021/01/05 05:46:50;;;;;;;3.05;2.67;;;6.70;99.90;;;;;;5032941;28;20037;-74
2021/01/05 05:49:32;;;;;;;3.75;2.42;;;6.70;99.90;;;;;;5027660;28;20105;-74
2021/01/05 05:52:02;;;;;;;4.88;2.50;;;6.70;99.90;;;;;;5033374;28;20036;-74
2021/01/05 05:54:28;;;;;;;2.28;2.05;;;6.80;99.90;;;;;;5033077;28;20124;-76
2021/01/05 05:57:05;;;;;;;2.45;1.80;;;6.80;99.90;;;;;;5033787;28;20096;-75
2021/01/05 05:59:46;;;;;;;2.70;2.40;;;6.80;99.90;;;;;;5025308;28;20018;-74
2021/01/05 06:02:20;;;;;;;1.83;1.58;;;6.80;99.90;;;;;;5029056;28;20096;-74
2021/01/05 06:04:47;;;;;;;3.28;2.92;;;6.80;99.90;;;;;;5031752;28;20021;-74
2021/01/05 06:07:13;;;;;;;3.25;1.90;;;6.90;99.90;;;;;;5031257;28;20025;-74
2021/01/05 06:09:39;;;;;;;2.78;2.13;;;6.90;99.90;;;;;;5031793;28;20026;-74
2021/01/05 06:12:06;;;;;;;3.85;2.40;;;6.90;99.90;;;;;;5033302;28;20090;-74
2021/01/05 06:14:33;;;;;;;4.88;2.78;;;6.90;99.90;;;;;;5025159;28;20029;-74
2021/01/05 06:16:58;;;;;;;5.15;3.30;;;6.90;99.90;;;;;;5032884;28;20103;-74
2021/01/05 06:19:24;;;;;;;3.22;2.55;;;6.80;99.90;;;;;;5028613;28;20076;-74
2021/01/05 06:21:51;;;;;;;4.82;2.40;;;6.80;99.90;;;;;;5030436;28;20030;-74
2021/01/05 06:24:17;;;;;;;3.92;3.20;;;6.70;99.90;;;;;;5032964;28;20032;-75
2021/01/05 06:26:43;;;;;;;6.18;3.13;;;6.70;99.90;;;;;;5030344;28;20477;-74
2021/01/05 06:29:08;;;;;;;3.20;2.90;;;6.50;99.90;;;;;;5031511;28;20101;-74
2021/01/05 06:31:35;;;;;;;4.72;3.95;;;6.60;99.90;;;;;;5032858;28;20052;-75
2021/01/05 06:34:01;;;;;;;3.22;2.92;;;6.50;99.90;;;;;;5030350;28;20052;-74
2021/01/05 06:36:29;;;;;;;4.53;3.05;;;6.50;99.90;;;;;;5033167;28;20049;-74
2021/01/05 06:38:58;;;;;;;2.97;2.53;;;6.40;99.90;;;;;;5032262;28;20029;-74
2021/01/05 06:41:27;;;;;;;3.50;2.65;;;6.40;99.90;;;;;;5031275;28;20025;-74
2021/01/05 06:43:53;;;;;;;6.32;2.83;;;6.40;99.90;;;;;;5030327;28;20026;-73
2021/01/05 06:46:19;;;;;;;3.05;2.75;;;6.40;99.90;;;;;;5032579;28;20026;-74
2021/01/05 06:48:45;;;;;;;4.15;3.20;;;6.40;99.90;;;;;;5032167;28;20394;-73
2021/01/05 06:51:10;;;;;;;3.15;2.85;;;6.50;99.90;;;;;;5031267;28;20533;-74
2021/01/05 06:53:36;;;;;;;2.70;2.50;;;6.50;99.90;;;;;;5032724;28;20534;-74
2021/01/05 06:56:02;;;;;;;3.10;2.80;;;6.50;99.90;;;;;;5031461;28;20075;-73
2021/01/05 06:58:28;;;;;;;3.17;2.88;;;6.60;99.90;;;;;;5032196;28;20120;-73
2021/01/05 07:00:54;;;;;;;3.33;2.35;;;6.70;99.90;;;;;;5031385;28;20037;-73
2021/01/05 07:03:23;;;;;;;2.67;2.45;;;6.80;99.90;;;;;;5031622;28;20032;-73
2021/01/05 07:05:48;;;;;;;2.97;2.75;;;6.80;99.90;;;;;;5026918;28;20025;-74
2021/01/05 07:08:15;;;;;;;4.75;2.50;;;6.90;99.90;;;;;;5029666;28;20026;-74
2021/01/05 07:10:40;;;;;;;3.17;2.80;;;7.00;99.90;;;;;;5029240;28;20025;-74
2021/01/05 07:13:07;;;;;;;5.43;2.53;;;7.10;99.90;;;;;;5026770;28;20026;-74
2021/01/05 07:15:32;;;;;;;4.05;2.97;;;7.20;99.90;;;;;;5028233;28;20127;-74
2021/01/05 07:17:59;;;;;;;8.70;4.05;;;7.20;99.90;;;;;;5032028;28;20057;-74
2021/01/05 07:20:25;;;;;;;3.53;2.40;;;7.20;99.90;;;;;;5034212;28;20024;-74
2021/01/05 07:22:51;;;;;;;7.15;2.88;;;7.20;99.90;;;;;;5041738;28;22087;-75
2021/01/05 07:25:17;;;;;;;4.90;2.42;;;7.30;99.90;;;;;;5041632;28;20032;-74
2021/01/05 07:27:43;;;;;;;3.33;3.03;;;7.40;99.90;;;;;;5040039;28;20029;-74
2021/01/05 07:30:09;;;;;;;9.77;3.20;;;7.40;99.90;;;;;;5035503;28;20385;-74
2021/01/05 07:32:35;;;;;;;5.07;2.58;;;7.40;99.90;;;;;;5035120;28;20033;-74
2021/01/05 07:35:01;;;;;;;7.72;3.05;;;7.50;99.90;;;;;;5024409;28;20017;-74
2021/01/05 07:37:31;;;;;;;3.38;3.08;;;7.50;99.90;;;;;;5036135;28;20423;-74
2021/01/05 07:39:57;;;;;;;4.63;3.10;;;7.60;99.90;;;;;;5026745;28;20481;-74
2021/01/05 07:42:26;;;;;;;4.07;3.13;;;7.50;99.90;;;;;;5035693;28;20025;-74
2021/01/05 07:44:55;;;;;;;3.33;2.90;;;7.40;99.90;;;;;;5035070;28;20052;-74
2021/01/05 07:47:24;;;;;;;3.03;2.72;;;7.40;99.90;;;;;;5035940;28;20029;-73
2021/01/05 07:49:50;;;;;;;3.53;3.22;;;7.40;99.90;;;;;;5034435;28;20024;-73
2021/01/05 07:52:33;;;;;;;4.22;3.10;;;7.40;99.90;;;;;;5035476;28;20022;-74
2021/01/05 07:55:00;;;;;;;8.35;3.10;;;7.40;99.90;;;;;;5028120;28;20049;-74
2021/01/05 07:57:26;;;;;;;2.63;2.42;;;7.50;99.90;;;;;;5035039;28;20101;-75
2021/01/05 07:59:51;;;;;;;5.53;3.45;;;7.50;99.90;;;;;;5032441;28;20108;-73
2021/01/05 08:02:17;;;;;;;3.78;3.10;;;7.50;99.90;;;;;;5034953;28;20381;-75
2021/01/05 08:04:43;;;;;;;4.35;3.47;;;7.50;99.90;;;;;;5033901;28;20544;-79
2021/01/05 08:07:10;;;;;;;5.00;3.60;;;7.60;99.90;;;;;;5033272;28;20029;-75
2021/01/05 08:09:40;;;;;;;3.03;2.83;;;7.70;99.90;;;;;;5033787;28;20434;-73
2021/01/05 08:12:12;;;;;;;6.07;2.50;;;7.80;99.90;;;;;;5030185;28;20084;-77
2021/01/05 08:14:38;;;;;;;2.28;2.13;;;7.80;99.90;;;;;;5035033;28;20033;-76
2021/01/05 08:17:04;;;;;;;7.88;3.55;;;7.80;99.90;;;;;;5033046;28;20140;-75
2021/01/05 08:19:30;;;;;;;4.82;3.13;;;7.80;99.90;;;;;;5033276;28;20064;-75
2021/01/05 08:21:56;;;;;;;3.55;3.25;;;7.90;99.90;;;;;;5034144;28;20108;-75
2021/01/05 08:24:21;;;;;;;10.55;4.32;;;7.90;99.90;;;;;;5027374;28;20362;-76
2021/01/05 08:26:47;;;;;;;2.90;2.58;;;7.90;99.90;;;;;;5033152;28;20076;-78
2021/01/05 08:29:13;;;;;;;6.10;2.70;;;8.00;99.90;;;;;;5030357;28;20484;-80
2021/01/05 08:31:42;;;;;;;9.65;3.25;;;8.00;99.90;;;;;;5029841;28;20021;-76
2021/01/05 08:34:08;;;;;;;4.53;2.63;;;8.10;99.90;;;;;;5014362;28;20030;-75
2021/01/05 08:36:34;;;;;;;6.25;2.83;;;8.10;99.90;;;;;;5014716;28;20026;-75
2021/01/05 08:39:00;;;;;;;5.90;2.97;;;8.10;99.90;;;;;;5019848;28;20049;-75
2021/01/05 08:41:27;;;;;;;6.78;2.83;;;8.00;99.90;;;;;;5031658;28;20489;-74
2021/01/05 08:43:56;;;;;;;8.20;3.08;;;8.00;99.90;;;;;;5018333;28;20037;-74
2021/01/05 08:46:27;;;;;;;6.43;3.38;;;8.10;99.90;;;;;;5019945;28;20038;-74
2021/01/05 08:48:53;;;;;;;5.28;4.05;;;8.20;99.90;;;;;;5017883;28;20029;-74
2021/01/05 08:51:24;;;;;;;3.60;2.22;;;8.30;99.90;;;;;;5019296;28;20084;-74
2021/01/05 08:53:53;;;;;;;4.95;2.05;;;8.30;99.90;;;;;;5018660;28;20491;-74
2021/01/05 08:56:25;;;;;;;2.80;2.28;;;8.30;99.90;;;;;;5018629;28;20033;-74
2021/01/05 08:58:52;;;;;;;4.05;1.88;;;8.40;99.90;;;;;;5017115;28;20022;-74
2021/01/05 09:01:18;;;;;;;5.22;2.90;;;8.40;99.90;;;;;;5019962;28;20050;-74
2021/01/05 09:03:45;;;;;;;2.90;2.38;;;8.40;99.90;;;;;;5018167;28;20026;-74
2021/01/05 09:06:13;;;;;;;3.80;2.22;;;8.50;99.90;;;;;;5017256;28;20057;-74
2021/01/05 09:08:40;;;;;;;4.93;1.88;;;8.60;99.90;;;;;;5017160;28;20045;-75
2021/01/05 09:11:15;;;;;;;2.63;2.40;;;8.80;99.90;;;;;;5012751;28;20074;-75
2021/01/05 09:13:41;;;;;;;2.25;1.80;;;8.90;99.90;;;;;;5012127;28;20033;-74
2021/01/05 09:16:07;;;;;;;4.32;2.70;;;8.90;99.90;;;;;;5016680;28;20018;-74
2021/01/05 09:18:33;;;;;;;4.55;2.72;;;9.10;99.90;;;;;;5017468;28;20105;-73
2021/01/05 09:21:03;;;;;;;4.82;2.03;;;9.30;99.90;;;;;;5019193;28;20069;-74
2021/01/05 09:23:30;;;;;;;2.72;2.10;;;9.30;99.90;;;;;;5032554;28;20022;-74
2021/01/05 09:25:59;;;;;;;2.08;1.88;;;9.40;99.90;;;;;;5032754;28;20030;-73
2021/01/05 09:28:27;;;;;;;5.80;2.75;;;9.30;99.90;;;;;;5018958;28;20053;-74
2021/01/05 09:30:53;;;;;;;4.43;2.58;;;9.30;99.90;;;;;;5017469;28;20026;-73
2021/01/05 09:33:20;;;;;;;3.38;1.70;;;9.20;99.90;;;;;;5016459;28;20036;-73
2021/01/05 09:35:48;;;;;;;1.83;1.35;;;9.10;99.90;;;;;;5015045;28;20052;-74
2021/01/05 09:38:15;;;;;;;1.75;1.20;;;8.90;99.90;;;;;;5017424;28;20022;-73
2021/01/05 09:40:42;;;;;;;2.35;1.60;;;8.80;99.90;;;;;;5015088;28;20036;-74
2021/01/05 09:43:10;;;;;;;3.67;1.77;;;8.80;99.90;;;;;;5009709;28;20105;-74
2021/01/05 09:45:37;;;;;;;2.00;1.42;;;8.80;99.90;;;;;;5006241;28;20021;-74
2021/01/05 09:48:11;;;;;;;1.25;1.15;;;8.90;99.90;;;;;;5020014;28;20433;-73
2021/01/05 09:50:42;;;;;;;1.48;1.38;;;8.80;99.90;;;;;;5022423;28;20029;-74
2021/01/05 09:53:10;;;;;;;1.45;0.98;;;8.90;99.90;;;;;;5016329;28;20084;-74
2021/01/05 09:55:37;;;;;;;2.97;1.48;;;8.90;99.90;;;;;;5019919;28;20041;-74
2021/01/05 09:58:03;;;;;;;4.38;2.05;;;8.80;99.90;;;;;;5022110;28;20080;-74
2021/01/05 10:00:29;;;;;;;2.17;1.83;;;8.80;99.90;;;;;;5020101;28;20029;-74
2021/01/05 10:02:58;;;;;;;3.28;1.35;;;8.80;99.90;;;;;;5021587;28;20052;-74
2021/01/05 10:05:27;;;;;;;2.80;1.35;;;8.80;99.90;;;;;;5019705;28;20022;-74
2021/01/05 10:07:59;;;;;;;2.10;1.27;;;8.80;99.90;;;;;;5016270;28;20029;-73
2021/01/05 10:10:29;;;;;;;1.95;1.33;;;8.90;99.90;;;;;;5017691;28;20474;-74
2021/01/05 10:12:55;;;;;;;2.65;1.85;;;8.90;99.90;;;;;;5022042;28;20060;-74
2021/01/05 10:15:23;;;;;;;3.95;1.75;;;9.00;99.90;;;;;;5022073;28;20030;-74
2021/01/05 10:17:49;;;;;;;2.95;2.10;;;9.20;99.90;;;;;;5019273;28;20037;-74
2021/01/05 10:20:20;;;;;;;4.25;2.33;;;9.30;99.90;;;;;;5017408;28;20030;-74
2021/01/05 10:22:47;;;;;;;5.30;2.65;;;9.30;99.90;;;;;;5022351;28;20459;-74
2021/01/05 10:25:14;;;;;;;6.70;2.22;;;9.40;99.90;;;;;;5019994;28;20041;-73
2021/01/05 10:27:40;;;;;;;7.25;2.40;;;9.50;99.90;;;;;;5019983;28;20026;-74
2021/01/05 10:30:08;;;;;;;3.78;2.72;;;9.50;99.90;;;;;;5021568;28;20018;-74
2021/01/05 10:32:35;;;;;;;5.68;1.80;;;9.70;99.90;;;;;;5023863;28;20054;-73
2021/01/05 10:35:01;;;;;;;3.60;2.00;;;9.70;99.90;;;;;;5026517;28;20026;-75
2021/01/05 10:37:27;;;;;;;5.78;2.30;;;9.80;99.90;;;;;;5023991;28;20030;-74
2021/01/05 10:39:53;;;;;;;3.10;2.72;;;9.90;99.90;;;;;;5010977;28;20047;-74
2021/01/05 10:42:22;;;;;;;10.43;2.45;;;9.90;99.90;;;;;;5025852;28;20014;-75
2021/01/05 10:44:48;;;;;;;15.10;3.55;;;9.90;99.90;;;;;;5024637;28;20091;-74
2021/01/05 10:47:14;;;;;;;5.75;2.63;;;10.00;99.90;;;;;;5024544;28;20021;-75
2021/01/05 10:49:44;;;;;;;5.10;1.90;;;10.20;99.90;;;;;;5024276;28;20037;-75
2021/01/05 10:52:15;;;;;;;2.28;1.70;;;10.30;99.90;;;;;;5023956;28;20018;-74
2021/01/05 10:54:48;;;;;;;3.35;1.65;;;10.30;99.90;;;;;;5021525;28;20037;-74
2021/01/05 10:57:22;;;;;;;3.13;2.83;;;10.20;99.90;;;;;;5027012;28;20029;-74
2021/01/05 10:59:48;;;;;;;10.45;4.60;;;10.10;99.90;;;;;;5026812;28;20501;-74
2021/01/05 11:02:14;;;;;;;2.60;1.80;;;10.00;99.90;;;;;;5025609;28;20026;-74
2021/01/05 11:04:40;;;;;;;3.13;1.50;;;9.90;99.90;;;;;;5017535;28;20014;-75
2021/01/05 11:07:11;;;;;;;2.08;1.92;;;9.70;99.90;;;;;;5009741;28;20037;-73
2021/01/05 11:09:37;;;;;;;3.13;1.60;;;9.70;99.90;;;;;;5006521;28;20048;-74
2021/01/05 11:12:06;;;;;;;2.97;1.42;;;9.60;99.90;;;;;;5027317;28;20030;-74
2021/01/05 11:14:39;;;;;;;3.47;0.98;;;9.50;99.90;;;;;;5025284;28;20047;-74
2021/01/05 11:17:05;;;;;;;6.97;1.70;;;9.50;99.90;;;;;;5022963;28;20069;-74
2021/01/05 11:19:31;;;;;;;1.58;1.35;;;9.60;99.90;;;;;;5027697;28;20030;-75
2021/01/05 11:22:00;;;;;;;2.83;2.33;;;9.70;99.90;;;;;;5022033;28;20037;-73
2021/01/05 11:24:27;;;;;;;6.05;2.45;;;9.70;99.90;;;;;;5022416;28;20041;-75
2021/01/05 11:26:54;;;;;;;4.68;3.08;;;9.80;99.90;;;;;;5017512;28;20034;-75
2021/01/05 11:29:21;;;;;;;2.45;2.15;;;9.70;99.90;;;;;;5016981;28;20037;-77
2021/01/05 11:31:53;;;;;;;4.35;2.33;;;9.60;99.90;;;;;;5019012;28;20034;-77
2021/01/05 11:34:19;;;;;;;2.42;1.67;;;9.40;99.90;;;;;;5015164;28;20034;-76
2021/01/05 11:36:45;;;;;;;4.60;3.25;;;9.50;99.90;;;;;;5016150;28;20445;-74
2021/01/05 11:39:11;;;;;;;2.80;2.53;;;9.40;99.90;;;;;;5016290;28;20478;-75
2021/01/05 11:41:37;;;;;;;3.10;2.10;;;9.50;99.90;;;;;;5016296;28;20085;-76
2021/01/05 11:44:05;;;;;;;3.10;2.17;;;9.50;99.90;;;;;;5015611;28;20025;-75
2021/01/05 11:46:31;;;;;;;1.60;1.50;;;9.50;99.90;;;;;;5014042;28;20029;-76
2021/01/05 11:48:57;;;;;;;4.95;2.95;;;9.60;99.90;;;;;;5015633;28;20497;-75
2021/01/05 11:51:27;;;;;;;3.45;2.83;;;9.70;99.90;;;;;;5015053;28;20026;-76
2021/01/05 11:53:52;;;;;;;13.05;7.65;;;9.70;99.90;;;;;;5016851;28;20114;-76
2021/01/05 11:56:24;;;;;;;5.95;4.40;;;9.80;99.90;;;;;;5015338;28;20049;-76
2021/01/05 11:58:49;;;;;;;16.47;12.13;;;10.00;99.90;;;;;;5015299;28;20113;-77
2021/01/05 12:01:15;;;;;;;7.00;4.07;;;10.20;99.90;;;;;;5014111;28;20114;-76
2021/01/05 12:03:41;;;;;;;11.10;7.80;;;10.20;99.90;;;;;;5014111;28;20030;-75
2021/01/05 12:06:22;;;;;;;4.68;3.05;;;10.40;99.90;;;;;;5014744;28;20038;-75
2021/01/05 12:08:49;;;;;;;4.70;4.00;;;10.30;99.90;;;;;;5015428;28;20104;-75
2021/01/05 12:11:36;;;;;;;5.55;4.60;;;10.10;99.90;;;;;;5016223;28;20498;-76
2021/01/05 12:14:05;;;;;;;6.80;4.60;;;10.20;99.90;;;;;;5018634;28;20030;-75
2021/01/05 12:16:43;;;;;;;9.88;4.18;;;10.20;99.90;;;;;;5015177;28;20064;-75
2021/01/05 12:19:17;;;;;;;4.30;3.63;;;10.60;99.90;;;;;;5015718;28;20021;-77
2021/01/05 12:21:43;;;;;;;4.47;3.17;;;10.50;99.90;;;;;;5015947;28;20109;-76
2021/01/05 12:24:18;;;;;;;3.80;2.70;;;10.50;99.90;;;;;;5014954;28;20026;-75
2021/01/05 12:26:45;;;;;;;11.93;4.63;;;10.30;99.90;;;;;;5014746;28;20022;-76
2021/01/05 12:29:23;;;;;;;3.88;2.42;;;10.30;99.90;;;;;;5016224;28;20109;-77
2021/01/05 12:31:58;;;;;;;3.33;3.03;;;10.20;99.90;;;;;;5015423;28;20025;-76
2021/01/05 12:34:27;;;;;;;4.70;2.83;;;10.30;99.90;;;;;;5015211;28;20108;-77
2021/01/05 12:36:54;;;;;;;6.35;3.38;;;10.40;99.90;;;;;;5016654;28;20053;-76
2021/01/05 12:39:23;;;;;;;2.15;1.83;;;10.40;99.90;;;;;;5016061;28;20108;-76
2021/01/05 12:41:49;;;;;;;5.68;3.08;;;10.50;99.90;;;;;;5014041;28;20026;-75
2021/01/05 12:44:24;;;;;;;5.60;3.50;;;10.50;99.90;;;;;;5014703;28;20033;-78
2021/01/05 12:46:51;;;;;;;4.82;3.55;;;10.50;99.90;;;;;;5015187;28;20775;-75
2021/01/05 12:49:18;;;;;;;4.63;3.30;;;10.50;99.90;;;;;;5013510;28;20080;-75
2021/01/05 12:51:46;;;;;;;5.38;3.97;;;10.60;99.90;;;;;;5014666;28;20030;-78
2021/01/05 12:54:16;;;;;;;7.05;3.85;;;10.50;99.90;;;;;;5014433;28;20030;-75
2021/01/05 12:56:42;;;;;;;5.35;3.20;;;10.50;99.90;;;;;;5013271;28;20065;-78
2021/01/05 12:59:07;;;;;;;4.30;3.15;;;10.70;99.90;;;;;;5014210;28;20494;-74
2021/01/05 13:01:33;;;;;;;4.07;2.83;;;10.80;99.90;;;;;;5014784;28;20385;-75
2021/01/05 13:04:00;;;;;;;6.90;3.65;;;10.70;99.90;;;;;;5014501;28;20018;-74
2021/01/05 13:06:26;;;;;;;4.72;2.85;;;10.80;99.90;;;;;;5014184;28;20409;-75
2021/01/05 13:08:51;;;;;;;3.10;2.42;;;10.80;99.90;;;;;;5016638;28;20030;-75
2021/01/05 13:11:23;;;;;;;4.18;3.78;;;10.80;99.90;;;;;;5019698;28;20026;-76
2021/01/05 13:13:49;;;;;;;3.55;2.40;;;10.80;99.90;;;;;;5019585;28;20108;-74